Time;durP1;ratioP1;P1;durP2;ratioP2;P2;SDS_P1;SDS_P2;PMS_P1;PMS_P2;Temp;Humidity;BMP_temperature;BMP_pressure;BME280_temperature;BME280_humidity;BME280_pressure;Samples;Min_cycle;Max_cycle;Signal;HPM_P1;HPM_P2
2023/03/28 07:01:59;;;;;;;0.60;0.60;;;4.20;99.90;5.20;102370.00;;;;5889638;22;9123365;-70
2023/03/28 07:04:34;;;;;;;0.40;0.40;;;4.00;99.90;6.00;102384.00;;;;6246417;23;20588;-69
2023/03/28 07:07:16;;;;;;;0.20;0.20;;;4.00;99.90;5.90;102386.00;;;;6248013;22;20175;-70
2023/03/28 07:09:50;;;;;;;0.20;0.20;;;3.90;99.90;6.00;102394.00;;;;6246265;23;20516;-69
2023/03/28 07:12:29;;;;;;;1.20;1.10;;;4.10;99.90;5.50;102312.00;;;;6246456;23;20166;-69
2023/03/28 07:15:33;;;;;;;0.40;0.40;;;4.10;99.90;6.70;102399.00;;;;6246619;23;20457;-70
2023/03/28 07:18:24;;;;;;;0.87;0.87;;;4.40;99.90;6.90;102358.00;;;;6221173;23;20159;-69
2023/03/28 07:21:17;;;;;;;0.20;0.20;;;4.80;99.90;7.50;102398.00;;;;6246321;23;20244;-69
2023/03/28 07:23:46;;;;;;;0.90;0.90;;;5.20;99.90;7.80;102410.00;;;;6246226;23;20185;-68
2023/03/28 07:26:20;;;;;;;0.30;0.30;;;5.90;99.90;6.40;102417.00;;;;6246559;23;20185;-69
2023/03/28 07:28:50;;;;;;;0.60;0.60;;;5.30;99.90;7.40;102405.00;;;;6246194;23;20203;-69
2023/03/28 07:31:30;;;;;;;0.97;0.97;;;5.10;99.90;6.70;102401.00;;;;6246289;23;20486;-69
2023/03/28 07:34:00;;;;;;;0.30;0.30;;;5.10;99.90;6.60;102402.00;;;;6245999;23;20174;-69
2023/03/28 07:36:39;;;;;;;0.20;0.20;;;4.90;99.90;6.80;102403.00;;;;6246298;23;20155;-70
2023/03/28 07:39:25;;;;;;;1.17;0.90;;;4.80;99.90;6.40;102397.00;;;;6246615;22;20174;-70
2023/03/28 07:42:20;;;;;;;0.83;0.83;;;4.80;99.90;6.80;102408.00;;;;6245651;23;20168;-70
2023/03/28 07:45:30;;;;;;;0.63;0.63;;;5.10;99.90;7.10;102413.00;;;;6242143;23;20224;-69
2023/03/28 07:48:52;;;;;;;0.47;0.47;;;5.20;99.90;7.00;102413.00;;;;6226096;23;20151;-70
2023/03/28 07:51:46;;;;;;;3.10;0.77;;;5.30;99.90;7.30;102342.00;;;;6204555;23;20189;-70
2023/03/28 07:54:55;;;;;;;0.83;0.83;;;5.30;99.90;7.90;102398.00;;;;6245150;23;20165;-67
2023/03/28 07:57:32;;;;;;;1.97;0.80;;;5.60;99.90;6.90;102400.00;;;;6245090;23;20178;-70
2023/03/28 08:00:41;;;;;;;0.20;0.20;;;5.50;99.90;7.10;102351.00;;;;6245129;23;20520;-70
2023/03/28 08:03:15;;;;;;;0.20;0.20;;;5.20;99.90;8.00;102406.00;;;;6246367;23;20165;-70
2023/03/28 08:06:06;;;;;;;0.20;0.20;;;5.60;99.90;7.50;102403.00;;;;6243600;22;20161;-70
2023/03/28 08:08:40;;;;;;;0.83;0.83;;;5.70;99.90;7.60;102399.00;;;;6245299;22;20243;-72
2023/03/28 08:11:06;;;;;;;1.40;0.77;;;5.70;99.90;7.50;102403.00;;;;6244555;23;20146;-72
2023/03/28 08:14:09;;;;;;;0.20;0.20;;;5.70;99.90;7.70;102413.00;;;;6244392;23;20191;-70
2023/03/28 08:17:15;;;;;;;0.20;0.20;;;5.90;99.90;7.70;102399.00;;;;6220391;23;20184;-72
2023/03/28 08:20:26;;;;;;;1.60;1.03;;;5.80;99.90;7.90;102405.00;;;;6244251;23;20195;-72
2023/03/28 08:23:30;;;;;;;0.40;0.40;;;5.90;99.90;8.70;102401.00;;;;6244788;23;20235;-70
2023/03/28 08:27:00;;;;;;;0.70;0.70;;;6.20;99.90;8.80;102393.00;;;;6246574;22;20153;-71
2023/03/28 08:30:06;;;;;;;0.20;0.20;;;6.20;99.90;8.20;102404.00;;;;6243188;22;20168;-71
2023/03/28 08:33:28;;;;;;;0.40;0.40;;;6.40;99.90;7.80;102331.00;;;;6216177;23;20185;-71
2023/03/28 08:36:56;;;;;;;0.43;0.43;;;6.20;99.90;9.00;102383.00;;;;6218080;23;20829;-72
2023/03/28 08:39:53;;;;;;;0.20;0.20;;;6.40;99.90;9.40;102413.00;;;;6243515;23;20577;-70
2023/03/28 08:43:05;;;;;;;0.30;0.30;;;7.00;99.90;8.90;102429.00;;;;6198540;23;20624;-70
2023/03/28 08:45:54;;;;;;;3.30;3.10;;;6.90;99.90;8.50;102357.00;;;;6236156;23;20238;-70
2023/03/28 08:48:54;;;;;;;5.83;1.03;;;6.50;99.90;8.50;102425.00;;;;6243956;23;20142;-70
2023/03/28 08:52:12;;;;;;;0.63;0.63;;;6.50;99.90;9.00;102426.00;;;;6216993;23;20300;-70
2023/03/28 08:57:42;;;;;;;0.13;0.13;;;7.00;99.90;10.40;102407.00;;;;6210369;23;20170;-70
2023/03/28 09:00:36;;;;;;;2.47;0.70;;;7.60;99.90;10.30;102432.00;;;;6212448;23;20305;-70
2023/03/28 09:03:26;;;;;;;0.60;0.60;;;8.30;99.90;9.50;102433.00;;;;6180589;23;20498;-70
2023/03/28 09:06:20;;;;;;;0.10;0.10;;;7.80;99.90;10.10;102424.00;;;;6210277;23;20212;-70
2023/03/28 09:09:34;;;;;;;0.30;0.30;;;7.80;99.90;11.40;102405.00;;;;6210378;23;20169;-70
2023/03/28 09:12:18;;;;;;;0.20;0.20;;;8.60;99.90;12.30;102388.00;;;;6210802;23;20204;-70
2023/03/28 09:14:58;;;;;;;0.40;0.40;;;9.20;99.90;11.80;102387.00;;;;6212439;23;20157;-70
2023/03/28 09:17:39;;;;;;;0.20;0.20;;;9.10;99.90;11.40;102395.00;;;;6232232;23;20193;-70
2023/03/28 09:20:18;;;;;;;1.23;1.17;;;9.00;99.90;10.60;102426.00;;;;6244392;23;20170;-70
2023/03/28 09:22:57;;;;;;;0.60;0.43;;;8.60;99.90;10.60;102419.00;;;;6243979;23;20492;-70
2023/03/28 09:25:38;;;;;;;0.30;0.30;;;8.20;99.90;10.20;102433.00;;;;6245323;22;20155;-70
2023/03/28 09:28:20;;;;;;;0.30;0.30;;;8.10;99.90;11.40;102417.00;;;;6245427;22;20589;-70
2023/03/28 09:31:08;;;;;;;0.20;0.20;;;8.50;99.90;11.70;102393.00;;;;6243013;23;20165;-70
2023/03/28 09:36:50;;;;;;;0.37;0.37;;;9.10;99.90;10.60;102408.00;;;;6233250;23;20175;-70
2023/03/28 09:40:00;;;;;;;0.30;0.30;;;8.80;99.90;10.30;102426.00;;;;6243017;23;20228;-71
2023/03/28 09:42:55;;;;;;;0.67;0.67;;;8.50;99.90;10.50;102421.00;;;;6244430;23;20463;-72
2023/03/28 09:45:52;;;;;;;1.23;0.73;;;8.30;99.90;10.30;102440.00;;;;6202966;23;20160;-70
2023/03/28 09:48:51;;;;;;;0.23;0.23;;;8.30;99.90;9.80;102448.00;;;;6242727;23;20157;-70
2023/03/28 09:51:55;;;;;;;0.40;0.40;;;8.20;99.90;11.60;102406.00;;;;6244711;23;20160;-70
2023/03/28 09:54:44;;;;;;;1.07;0.57;;;8.50;99.90;11.20;102410.00;;;;6242814;23;20165;-70
2023/03/28 10:00:58;;;;;;;0.40;0.40;;;8.90;99.90;11.40;102398.00;;;;6245042;22;20172;-70
2023/03/28 10:03:59;;;;;;;1.30;1.20;;;9.10;99.90;10.60;102409.00;;;;6242750;23;20178;-70
2023/03/28 10:06:40;;;;;;;0.30;0.30;;;8.70;99.90;10.50;102402.00;;;;6243388;23;20689;-70
2023/03/28 10:14:31;;;;;;;0.50;0.50;;;8.40;99.90;10.60;102395.00;;;;6225413;22;20241;-72
2023/03/28 10:17:32;;;;;;;3.40;1.20;;;8.60;99.90;10.60;102404.00;;;;6234761;23;20256;-72
2023/03/28 10:20:24;;;;;;;0.20;0.20;;;8.60;99.90;11.40;102372.00;;;;6217745;23;20192;-73
2023/03/28 10:34:01;;;;;;;0.43;0.43;;;7.90;99.90;10.20;102377.00;;;;5150506;27;20632;-75
2023/03/28 10:40:19;;;;;;;9.63;0.73;;;8.20;99.90;11.10;102353.00;;;;5118366;28;20245;-72
2023/03/28 10:44:07;;;;;;;1.53;0.60;;;8.50;99.90;11.20;102354.00;;;;5117375;28;20576;-72
2023/03/28 10:47:12;;;;;;;0.43;0.40;;;8.80;99.90;11.20;102341.00;;;;5128209;28;20510;-72
2023/03/28 10:50:20;;;;;;;1.83;0.60;;;9.00;99.90;11.60;102335.00;;;;5095341;28;20194;-72
2023/03/28 10:53:17;;;;;;;0.17;0.17;;;9.20;99.90;11.20;102348.00;;;;5109006;28;20206;-72
2023/03/28 10:56:12;;;;;;;0.63;0.57;;;9.10;99.90;10.90;102352.00;;;;5125559;28;20175;-72
2023/03/28 10:59:09;;;;;;;1.30;0.83;;;8.90;99.90;11.30;102264.00;;;;5110824;28;20195;-73
2023/03/28 11:01:56;;;;;;;0.33;0.33;;;9.20;99.90;11.20;102315.00;;;;5128841;28;20226;-72
2023/03/28 11:05:07;;;;;;;0.60;0.60;;;9.20;99.90;12.10;102288.00;;;;5112321;28;20218;-73
2023/03/28 11:07:51;;;;;;;0.43;0.43;;;9.40;99.90;12.90;102271.00;;;;5125170;28;20525;-72
2023/03/28 11:11:14;;;;;;;1.00;0.77;;;10.00;99.90;12.80;102267.00;;;;5112190;28;20195;-72
2023/03/28 11:14:22;;;;;;;2.53;0.43;;;10.10;99.90;11.70;102262.00;;;;5085241;28;20192;-72
2023/03/28 11:17:19;;;;;;;0.40;0.40;;;9.80;99.90;12.40;102195.00;;;;5108958;28;20192;-72
2023/03/28 11:20:18;;;;;;;0.23;0.23;;;9.70;99.90;12.60;102230.00;;;;5102611;28;20592;-71
2023/03/28 11:23:16;;;;;;;0.87;0.30;;;10.00;99.90;13.20;102209.00;;;;5111210;28;20183;-71
2023/03/28 11:26:38;;;;;;;0.70;0.70;;;10.40;99.90;12.30;102176.00;;;;5111168;28;20801;-72
2023/03/28 11:29:20;;;;;;;0.63;0.63;;;10.30;99.90;12.70;102227.00;;;;5045225;28;20619;-72
2023/03/28 11:32:28;;;;;;;0.30;0.27;;;10.40;99.90;13.70;102196.00;;;;5046635;28;20327;-72
2023/03/28 11:35:14;;;;;;;0.40;0.40;;;10.70;99.90;13.80;102188.00;;;;5007064;28;20200;-72
2023/03/28 11:38:04;;;;;;;0.20;0.20;;;11.20;99.90;13.90;102216.00;;;;5047194;28;20261;-71
2023/03/28 11:40:46;;;;;;;0.10;0.10;;;11.20;99.90;13.20;102232.00;;;;5045925;28;20215;-71
2023/03/28 11:43:50;;;;;;;0.47;0.47;;;11.10;99.90;12.40;102251.00;;;;5077990;28;20242;-71
2023/03/28 11:46:36;;;;;;;0.60;0.60;;;10.70;99.90;12.50;102196.00;;;;5080475;28;20196;-72
2023/03/28 11:49:25;;;;;;;1.27;1.17;;;10.40;99.90;12.10;102255.00;;;;5097275;28;20187;-68
2023/03/28 11:52:05;;;;;;;0.73;0.73;;;10.10;99.90;12.00;102261.00;;;;5114389;28;20195;-72
2023/03/28 11:55:03;;;;;;;0.20;0.20;;;9.90;99.90;12.30;102257.00;;;;5114519;28;20717;-72
2023/03/28 11:58:06;;;;;;;0.10;0.10;;;9.70;99.90;12.40;102252.00;;;;5097516;28;20632;-71
2023/03/28 12:01:02;;;;;;;0.43;0.43;;;9.90;99.90;12.10;102264.00;;;;5113342;28;20192;-71
2023/03/28 12:04:03;;;;;;;4.00;1.23;;;10.00;99.90;12.30;102256.00;;;;5096929;28;20227;-72
2023/03/28 12:07:09;;;;;;;0.20;0.20;;;10.00;99.90;12.00;102252.00;;;;5110510;28;20710;-71
2023/03/28 12:10:02;;;;;;;1.70;1.33;;;9.80;99.90;13.50;102206.00;;;;5065144;28;20192;-72
2023/03/28 12:12:51;;;;;;;4.57;2.03;;;10.30;99.90;13.10;102212.00;;;;5087474;28;20224;-72
2023/03/28 12:15:49;;;;;;;0.27;0.23;;;10.80;99.90;12.80;102211.00;;;;5112478;28;20347;-72
2023/03/28 12:18:43;;;;;;;0.20;0.20;;;10.80;99.90;13.10;102213.00;;;;5097416;28;20354;-71
2023/03/28 12:21:27;;;;;;;0.20;0.20;;;10.90;99.90;13.10;102206.00;;;;5097715;28;20189;-72
2023/03/28 12:27:34;;;;;;;;;;;;;;;;;;;;;
2023/03/28 12:31:20;;;;;;;0.83;0.30;;;10.60;99.90;12.70;102229.00;;;;5107522;28;20195;-72
2023/03/28 12:34:06;;;;;;;0.53;0.53;;;10.60;99.90;13.30;102196.00;;;;5067398;28;20179;-72
2023/03/28 12:36:42;;;;;;;0.50;0.43;;;10.80;99.90;12.90;102201.00;;;;5068625;28;20567;-72
2023/03/28 12:39:18;;;;;;;0.47;0.47;;;10.70;99.90;13.00;102210.00;;;;5065220;28;20188;-72
2023/03/28 12:41:51;;;;;;;4.00;1.20;;;10.70;99.90;13.10;102202.00;;;;5049899;28;20197;-72
2023/03/28 12:45:02;;;;;;;0.97;0.57;;;10.60;99.90;13.70;102191.00;;;;5046380;28;20284;-72
2023/03/28 12:47:47;;;;;;;1.23;0.30;;;10.80;99.90;13.20;102186.00;;;;5041657;28;20573;-72
2023/03/28 12:51:40;;;;;;;1.10;1.00;;;10.70;99.90;12.50;102202.00;;;;5056088;28;20196;-72
2023/03/28 12:54:22;;;;;;;0.20;0.20;;;10.50;99.90;12.50;102203.00;;;;5024293;28;20196;-72
2023/03/28 12:57:16;;;;;;;0.23;0.23;;;10.40;99.90;13.00;102196.00;;;;5054762;28;20237;-72
2023/03/28 13:00:05;;;;;;;0.80;0.80;;;10.50;99.90;13.30;102182.00;;;;5059983;28;20193;-72
2023/03/28 13:03:25;;;;;;;1.03;1.03;;;10.60;99.90;13.80;102105.00;;;;5058499;28;20264;-74
2023/03/28 13:06:42;;;;;;;1.73;0.63;;;10.80;99.90;13.70;102155.00;;;;5093003;28;20681;-73
2023/03/28 13:10:00;;;;;;;8.27;0.87;;;11.00;99.90;13.30;102170.00;;;;5112934;28;20186;-72
2023/03/28 13:13:10;;;;;;;0.10;0.10;;;11.00;99.90;14.20;102140.00;;;;5113263;28;20326;-72
2023/03/28 13:16:01;;;;;;;0.10;0.10;;;11.10;99.90;14.60;102141.00;;;;5055227;28;20211;-72
2023/03/28 13:19:09;;;;;;;0.20;0.20;;;11.50;99.90;14.40;102150.00;;;;5111317;28;20598;-72
2023/03/28 13:22:28;;;;;;;1.40;0.60;;;11.50;99.90;13.50;102150.00;;;;5094286;28;20263;-72
2023/03/28 13:25:52;;;;;;;0.67;0.50;;;11.30;99.90;13.50;102145.00;;;;5094368;28;20187;-72
2023/03/28 13:28:26;;;;;;;2.27;0.43;;;11.20;99.90;13.20;102107.00;;;;5096609;28;20194;-72
2023/03/28 13:31:08;;;;;;;2.27;0.70;;;10.90;99.90;13.40;102144.00;;;;5113410;28;20184;-73
2023/03/28 13:34:03;;;;;;;3.60;0.60;;;11.10;99.90;13.10;102145.00;;;;5111702;28;20195;-72
2023/03/28 13:36:53;;;;;;;0.40;0.40;;;10.90;99.90;13.40;102139.00;;;;5113154;28;20183;-73
2023/03/28 13:39:28;;;;;;;1.33;0.83;;;11.10;99.90;13.20;102142.00;;;;5086416;28;20197;-72
2023/03/28 13:42:32;;;;;;;0.10;0.10;;;10.90;99.90;13.20;102134.00;;;;5095250;28;20260;-72
2023/03/28 13:45:25;;;;;;;0.20;0.20;;;10.90;99.90;12.90;102091.00;;;;5093181;28;20177;-72
2023/03/28 13:48:10;;;;;;;;;;;;;;;;;;;;;
2023/03/28 13:50:37;;;;;;;0.40;0.40;;;10.90;99.90;13.30;102082.00;;;;5095183;28;20178;-72
2023/03/28 13:53:21;;;;;;;0.10;0.10;;;10.90;99.90;13.40;102122.00;;;;5094406;28;20670;-72
2023/03/28 13:56:30;;;;;;;1.20;0.63;;;10.90;99.90;13.80;102109.00;;;;5106908;28;20234;-72
2023/03/28 13:59:36;;;;;;;0.57;0.53;;;11.10;99.90;12.90;102119.00;;;;5092841;28;20187;-73
2023/03/28 14:02:47;;;;;;;0.50;0.50;;;11.10;99.90;12.70;102053.00;;;;5095225;28;20182;-72
2023/03/28 14:05:40;;;;;;;0.23;0.23;;;10.80;99.90;12.80;102109.00;;;;5094942;28;20205;-72
2023/03/28 14:08:30;;;;;;;0.83;0.80;;;10.70;99.90;13.00;102100.00;;;;5076920;28;20271;-72
2023/03/28 14:11:36;;;;;;;0.83;0.40;;;10.70;99.90;13.60;102084.00;;;;5105274;28;20185;-72
2023/03/28 14:17:55;;;;;;;1.87;0.57;;;10.80;99.90;13.20;102024.00;;;;5101055;28;20186;-73
2023/03/28 14:21:10;;;;;;;0.20;0.20;;;10.80;99.90;13.10;102054.00;;;;5095162;28;20179;-72
2023/03/28 14:24:04;;;;;;;0.23;0.23;;;10.90;99.90;13.30;102064.00;;;;5084688;28;20185;-72
2023/03/28 14:27:15;;;;;;;0.20;0.20;;;10.90;99.90;14.20;102035.00;;;;5095175;28;20189;-72
2023/03/28 14:30:42;;;;;;;0.50;0.50;;;11.00;99.90;12.80;102068.00;;;;5066951;28;20665;-72
2023/03/28 14:36:57;;;;;;;0.27;0.27;;;10.80;99.90;13.80;102030.00;;;;5112151;28;20681;-72
2023/03/28 14:39:51;;;;;;;0.20;0.20;;;10.90;99.90;13.30;101980.00;;;;5095423;28;20649;-72
2023/03/28 14:42:50;;;;;;;0.10;0.10;;;10.90;99.90;13.20;102023.00;;;;5093908;28;20273;-72
2023/03/28 14:45:21;;;;;;;0.20;0.20;;;10.80;99.90;13.20;102022.00;;;;5077609;28;20556;-72
2023/03/28 14:48:14;;;;;;;0.20;0.20;;;10.80;99.90;12.70;102042.00;;;;5093006;28;20686;-72
2023/03/28 14:51:44;;;;;;;1.90;0.20;;;10.60;99.90;13.30;102029.00;;;;5092336;28;20192;-72
2023/03/28 14:55:06;;;;;;;0.43;0.43;;;10.70;99.90;13.40;102017.00;;;;5096324;28;20185;-72
2023/03/28 14:58:08;;;;;;;0.10;0.10;;;10.80;99.90;14.10;101987.00;;;;5092254;28;20650;-72
2023/03/28 15:01:20;;;;;;;0.10;0.10;;;11.00;99.90;13.60;101985.00;;;;5085787;28;20206;-72
2023/03/28 15:04:16;;;;;;;0.20;0.20;;;10.90;99.90;13.80;101976.00;;;;5096732;28;20649;-71
2023/03/28 15:07:38;;;;;;;0.20;0.20;;;11.10;99.90;13.40;101927.00;;;;5092923;28;20189;-71
2023/03/28 15:10:43;;;;;;;0.10;0.10;;;11.10;99.90;13.20;101989.00;;;;5101970;28;20199;-72
2023/03/28 15:14:16;;;;;;;0.83;0.83;;;10.80;99.90;12.70;102009.00;;;;5092270;28;20200;-72
2023/03/28 15:17:27;;;;;;;0.40;0.40;;;10.40;99.90;13.20;101975.00;;;;5094665;28;20190;-72
2023/03/28 15:20:25;;;;;;;0.23;0.23;;;10.50;99.90;12.80;101997.00;;;;5112908;28;20180;-67
2023/03/28 15:23:02;;;;;;;1.10;0.47;;;10.60;99.90;12.50;101984.00;;;;5089722;28;20184;-68
2023/03/28 15:25:54;;;;;;;0.20;0.20;;;10.40;99.90;12.90;101988.00;;;;5093826;28;20238;-67
2023/03/28 15:28:58;;;;;;;0.80;0.60;;;10.50;99.90;12.50;101985.00;;;;5079970;28;20199;-67
2023/03/28 15:32:05;;;;;;;0.20;0.20;;;10.50;99.90;13.30;101973.00;;;;5093759;28;20206;-67
2023/03/28 15:35:05;;;;;;;0.97;0.90;;;10.40;99.90;12.80;101968.00;;;;5096620;28;20660;-66
2023/03/28 15:37:58;;;;;;;0.60;0.60;;;10.50;99.90;13.10;101976.00;;;;5096435;28;20180;-66
2023/03/28 15:40:28;;;;;;;5.17;0.43;;;10.50;99.90;12.80;101975.00;;;;5096800;28;20191;-67
2023/03/28 15:43:28;;;;;;;0.90;0.83;;;10.40;99.90;12.60;101977.00;;;;5116329;28;20184;-66
2023/03/28 15:46:20;;;;;;;0.20;0.20;;;10.30;99.90;13.20;101950.00;;;;5082607;28;20199;-67
2023/03/28 15:49:24;;;;;;;0.47;0.47;;;10.60;99.90;13.00;101958.00;;;;5094644;28;20212;-66
2023/03/28 15:52:19;;;;;;;0.23;0.23;;;10.40;99.90;12.70;101952.00;;;;5089554;28;20654;-66
2023/03/28 15:55:25;;;;;;;0.53;0.53;;;10.50;99.90;12.40;101972.00;;;;5094175;28;20235;-67
2023/03/28 15:58:19;;;;;;;4.53;0.90;;;10.30;99.90;12.30;101983.00;;;;5098037;28;20269;-66
2023/03/28 16:05:04;;;;;;;2.00;1.80;;;10.00;99.90;12.30;101965.00;;;;5099728;28;20233;-67
2023/03/28 16:07:53;;;;;;;1.30;1.13;;;10.10;99.90;12.40;101956.00;;;;5113980;28;20184;-66
2023/03/28 16:10:42;;;;;;;0.30;0.30;;;10.00;99.90;12.60;101950.00;;;;5097167;28;20668;-66
2023/03/28 16:13:52;;;;;;;2.33;0.57;;;10.10;99.90;12.30;101961.00;;;;5097574;28;20211;-66
2023/03/28 16:16:52;;;;;;;1.60;0.77;;;10.00;99.90;12.70;101959.00;;;;5081905;28;20199;-66
2023/03/28 16:19:43;;;;;;;1.53;1.50;;;10.10;99.90;12.80;101951.00;;;;5091649;28;20279;-66
2023/03/28 16:22:39;;;;;;;2.77;0.57;;;10.20;99.90;12.00;101978.00;;;;5107116;28;20649;-66
2023/03/28 16:25:49;;;;;;;4.80;1.90;;;10.00;99.90;10.90;101990.00;;;;5104248;28;20562;-66
2023/03/28 16:28:53;;;;;;;0.73;0.50;;;9.60;99.90;12.00;101947.00;;;;5097086;28;20198;-68
2023/03/28 16:32:05;;;;;;;0.70;0.70;;;9.50;99.90;11.20;101963.00;;;;5113654;28;20340;-66
2023/03/28 16:35:14;;;;;;;0.27;0.27;;;9.30;99.90;11.40;101941.00;;;;5097055;28;20637;-68
2023/03/28 16:38:23;;;;;;;0.67;0.57;;;9.10;99.90;11.10;101913.00;;;;5093424;28;20240;-68
2023/03/28 16:41:04;;;;;;;0.20;0.20;;;9.00;99.90;11.30;101894.00;;;;5075724;28;20214;-68
2023/03/28 16:44:10;;;;;;;0.40;0.40;;;9.10;99.90;10.90;101878.00;;;;5077461;28;20245;-68
2023/03/28 16:47:17;;;;;;;0.57;0.57;;;9.00;99.90;10.60;101856.00;;;;5069641;28;20203;-66
2023/03/28 16:50:11;;;;;;;0.30;0.30;;;8.80;99.90;10.40;101847.00;;;;5044854;28;20253;-69
2023/03/28 16:52:46;;;;;;;0.40;0.40;;;8.80;99.90;10.30;101780.00;;;;5110344;28;20710;-68
2023/03/28 16:55:44;;;;;;;0.57;0.57;;;8.70;99.90;10.30;101807.00;;;;5096901;28;20264;-68
2023/03/28 16:58:35;;;;;;;0.97;0.90;;;8.70;99.90;10.10;101809.00;;;;5097045;28;20175;-68
2023/03/28 17:01:23;;;;;;;0.70;0.70;;;8.50;99.90;10.20;101763.00;;;;5108755;28;20221;-68
2023/03/28 17:04:34;;;;;;;0.70;0.70;;;8.50;99.90;9.70;101790.00;;;;5101866;28;20223;-68
2023/03/28 17:07:00;;;;;;;1.13;1.03;;;8.20;99.90;9.80;101802.00;;;;5079969;28;20233;-68
2023/03/28 17:09:27;;;;;;;0.70;0.70;;;8.20;99.90;9.50;101801.00;;;;5114898;28;20280;-68
2023/03/28 17:12:23;;;;;;;1.47;1.07;;;8.00;99.90;9.20;101776.00;;;;5096365;28;20204;-68
2023/03/28 17:14:55;;;;;;;0.80;0.80;;;7.80;99.90;9.30;101776.00;;;;5084082;28;20192;-69
2023/03/28 17:17:41;;;;;;;1.40;1.23;;;7.70;99.90;9.40;101779.00;;;;5113172;28;20210;-69
2023/03/28 17:20:34;;;;;;;0.37;0.37;;;7.70;99.90;9.90;101794.00;;;;5079092;28;20642;-69
2023/03/28 17:23:30;;;;;;;1.20;1.20;;;7.70;99.90;9.60;101795.00;;;;5087324;28;20760;-69
2023/03/28 17:26:15;;;;;;;0.43;0.43;;;7.70;99.90;9.30;101791.00;;;;5091720;28;20199;-69
2023/03/28 17:29:19;;;;;;;2.40;1.90;;;7.70;99.90;9.40;101775.00;;;;5096231;28;20268;-69
2023/03/28 17:31:48;;;;;;;1.00;1.00;;;7.40;99.90;9.10;101755.00;;;;5088923;28;20290;-69
2023/03/28 17:34:18;;;;;;;0.30;0.30;;;7.30;99.90;9.10;101771.00;;;;5078313;28;20177;-69
2023/03/28 17:36:52;;;;;;;0.53;0.53;;;7.30;99.90;9.20;101762.00;;;;5096123;28;20519;-69
2023/03/28 17:39:18;;;;;;;0.90;0.73;;;7.20;99.90;9.70;101744.00;;;;5078372;28;20232;-69
2023/03/28 17:41:44;;;;;;;1.23;0.90;;;7.30;99.90;8.80;101753.00;;;;5094617;28;20196;-69
2023/03/28 17:45:12;;;;;;;1.50;1.33;;;7.20;99.90;8.80;101749.00;;;;5113638;28;20633;-68
2023/03/28 17:47:55;;;;;;;0.30;0.30;;;7.10;99.90;9.30;101734.00;;;;5110597;28;20212;-71
2023/03/28 17:51:06;;;;;;;0.50;0.50;;;7.10;99.90;8.50;101742.00;;;;5113761;28;20191;-69
2023/03/28 17:54:16;;;;;;;0.30;0.30;;;7.10;99.90;9.10;101741.00;;;;5033230;28;20227;-69
2023/03/28 17:56:44;;;;;;;0.40;0.40;;;7.00;99.90;9.80;101730.00;;;;5015253;28;20195;-67
2023/03/28 17:59:11;;;;;;;0.30;0.30;;;7.30;99.90;9.60;101713.00;;;;5050545;28;20206;-67
2023/03/28 18:01:37;;;;;;;0.40;0.33;;;7.40;99.90;9.50;101666.00;;;;5049006;28;20610;-67
2023/03/28 18:04:03;;;;;;;0.60;0.60;;;7.40;99.90;9.20;101716.00;;;;5059984;28;20202;-67
2023/03/28 18:06:47;;;;;;;0.70;0.70;;;7.30;99.90;9.00;101701.00;;;;5095638;28;20183;-67
2023/03/28 18:09:29;;;;;;;0.40;0.40;;;7.20;99.90;9.30;101709.00;;;;5094646;28;20538;-67
2023/03/28 18:12:27;;;;;;;0.87;0.87;;;7.30;99.90;9.80;101636.00;;;;5096058;28;20209;-67
2023/03/28 18:14:59;;;;;;;0.33;0.33;;;7.30;99.90;9.90;101689.00;;;;5067158;28;20613;-67
2023/03/28 18:18:04;;;;;;;0.30;0.30;;;7.50;99.90;9.60;101691.00;;;;5106415;28;20273;-67
2023/03/28 18:20:41;;;;;;;1.40;0.83;;;7.40;99.90;9.30;101690.00;;;;5113370;28;20586;-67
2023/03/28 18:24:07;;;;;;;1.57;1.47;;;7.50;99.90;9.90;101680.00;;;;5094931;28;20683;-74
2023/03/28 18:26:33;;;;;;;0.87;0.87;;;7.40;99.90;9.50;101651.00;;;;5093439;28;20199;-69
2023/03/28 18:29:42;;;;;;;0.70;0.70;;;7.40;99.90;9.50;101665.00;;;;5094958;28;20180;-69
2023/03/28 18:32:30;;;;;;;2.83;1.53;;;7.50;99.90;9.50;101657.00;;;;5076584;28;20315;-68
2023/03/28 18:35:33;;;;;;;0.77;0.77;;;7.40;99.90;9.30;101649.00;;;;5094569;28;20187;-68
2023/03/28 18:42:07;;;;;;;0.60;0.60;;;7.30;99.90;9.70;101650.00;;;;5098349;28;20244;-69
2023/03/28 18:45:18;;;;;;;0.93;0.40;;;7.50;99.90;9.30;101629.00;;;;5077162;28;20275;-68
2023/03/28 18:48:46;;;;;;;1.43;0.70;;;7.30;99.90;9.20;101634.00;;;;5110855;28;20208;-69
2023/03/28 18:51:54;;;;;;;0.87;0.77;;;7.20;99.90;9.70;101566.00;;;;5098305;28;20205;-69
2023/03/28 18:55:05;;;;;;;0.93;0.87;;;7.30;99.90;9.50;101632.00;;;;5097803;28;20176;-69
2023/03/28 18:58:11;;;;;;;0.40;0.40;;;7.40;99.90;9.30;101624.00;;;;5098986;28;20533;-69
2023/03/28 19:01:32;;;;;;;0.50;0.50;;;7.40;99.90;9.80;101601.00;;;;5098552;28;20549;-69
2023/03/28 19:05:01;;;;;;;1.70;1.50;;;7.20;99.90;9.50;101620.00;;;;5067928;28;20209;-69
2023/03/28 19:08:05;;;;;;;0.80;0.60;;;7.40;99.90;9.30;101558.00;;;;5104084;28;20596;-69
2023/03/28 19:11:13;;;;;;;0.70;0.70;;;7.30;99.90;9.30;101620.00;;;;5097489;28;20188;-69
2023/03/28 19:14:43;;;;;;;1.83;0.83;;;7.20;99.90;8.70;101634.00;;;;5111011;28;20217;-68
2023/03/28 19:18:10;;;;;;;0.40;0.40;;;7.20;99.90;9.20;101633.00;;;;5099882;28;20213;-69
2023/03/28 19:21:26;;;;;;;0.30;0.30;;;7.00;99.90;9.30;101646.00;;;;5109526;28;20249;-69
2023/03/28 19:24:33;;;;;;;0.80;0.80;;;7.20;99.90;9.30;101638.00;;;;5071811;28;20229;-69
2023/03/28 19:27:47;;;;;;;0.60;0.60;;;7.20;99.90;9.40;101628.00;;;;5092297;28;20195;-68
2023/03/28 19:31:06;;;;;;;0.47;0.47;;;7.20;99.90;9.60;101623.00;;;;5081966;28;20183;-68
2023/03/28 19:33:46;;;;;;;1.90;0.80;;;7.20;99.90;9.30;101583.00;;;;5083675;28;20726;-68
2023/03/28 19:36:37;;;;;;;0.80;0.80;;;7.20;99.90;9.30;101619.00;;;;5098129;28;20176;-68
2023/03/28 19:39:46;;;;;;;0.70;0.60;;;7.20;99.90;9.70;101623.00;;;;5107919;27;20191;-68
2023/03/28 19:42:35;;;;;;;3.67;0.73;;;7.30;99.90;9.90;101619.00;;;;5028058;28;20363;-68
2023/03/28 19:45:35;;;;;;;0.70;0.70;;;7.40;99.90;9.80;101615.00;;;;5111342;28;20598;-68
2023/03/28 19:48:39;;;;;;;1.17;0.63;;;7.50;99.90;9.30;101614.00;;;;5081459;28;20180;-68
2023/03/28 19:51:45;;;;;;;0.50;0.50;;;7.40;99.90;9.20;101618.00;;;;5091429;28;20228;-68
2023/03/28 19:54:26;;;;;;;0.43;0.43;;;7.40;99.90;9.60;101623.00;;;;5079677;28;20325;-68
2023/03/28 19:57:12;;;;;;;0.33;0.33;;;7.40;99.90;9.80;101592.00;;;;5097459;28;20238;-68
2023/03/28 19:59:50;;;;;;;0.93;0.67;;;7.50;99.90;10.00;101593.00;;;;5098030;28;20191;-68
2023/03/28 20:02:21;;;;;;;0.97;0.70;;;7.50;99.90;9.90;101575.00;;;;5098443;28;21126;-68
2023/03/28 20:05:00;;;;;;;0.70;0.70;;;7.50;99.90;10.20;101584.00;;;;5095492;28;20280;-68
2023/03/28 20:07:28;;;;;;;5.93;1.33;;;7.60;99.90;9.80;101591.00;;;;5080881;28;20627;-68
2023/03/28 20:10:41;;;;;;;0.60;0.60;;;7.60;99.90;10.00;101578.00;;;;5080732;28;20188;-68
2023/03/28 20:13:32;;;;;;;2.03;0.60;;;7.60;99.90;9.60;101580.00;;;;5092632;28;20208;-68
2023/03/28 20:16:29;;;;;;;0.60;0.60;;;7.50;99.90;9.80;101554.00;;;;5130257;27;20192;-68
2023/03/28 20:19:06;;;;;;;0.40;0.40;;;7.50;99.90;9.90;101589.00;;;;5096617;28;20498;-68
2023/03/28 20:21:47;;;;;;;0.40;0.40;;;7.50;99.90;9.80;101515.00;;;;5097172;28;20180;-68
2023/03/28 20:24:57;;;;;;;0.60;0.60;;;7.40;99.90;9.40;101567.00;;;;5087080;28;20176;-68
2023/03/28 20:27:49;;;;;;;0.43;0.43;;;7.40;99.90;9.70;101575.00;;;;5095778;28;20250;-68
2023/03/28 20:30:53;;;;;;;0.87;0.87;;;7.30;99.90;9.50;101573.00;;;;5093446;28;20288;-68
2023/03/28 20:33:53;;;;;;;0.70;0.70;;;7.40;99.90;9.50;101568.00;;;;5090938;28;20216;-69
2023/03/28 20:36:48;;;;;;;0.63;0.63;;;7.40;99.90;10.00;101553.00;;;;5094006;28;20194;-68
2023/03/28 20:40:09;;;;;;;0.50;0.50;;;7.40;99.90;9.70;101552.00;;;;5096685;28;20194;-68
2023/03/28 20:43:08;;;;;;;0.20;0.20;;;7.40;99.90;9.90;101560.00;;;;5105082;28;20270;-68
2023/03/28 20:46:01;;;;;;;0.40;0.40;;;7.50;99.90;9.80;101549.00;;;;5107099;28;20641;-68
2023/03/28 20:49:11;;;;;;;0.30;0.30;;;7.50;99.90;10.20;101555.00;;;;5093395;28;20195;-69
2023/03/28 20:52:09;;;;;;;0.57;0.57;;;7.60;99.90;9.90;101553.00;;;;5096026;28;20241;-68